sensor_id;sensor_type;location;lat;lon;timestamp;temperature;humidity
52181;DHT22;38158;53.338;6.514;2022-11-24T00:00:00;6.70;99.90
52181;DHT22;38158;53.338;6.514;2022-11-24T00:02:27;6.70;99.90
52181;DHT22;38158;53.338;6.514;2022-11-24T00:04:53;6.80;99.90
52181;DHT22;38158;53.338;6.514;2022-11-24T00:07:19;6.70;99.90
52181;DHT22;38158;53.338;6.514;2022-11-24T00:09:44;6.70;99.90
52181;DHT22;38158;53.338;6.514;2022-11-24T00:12:10;6.80;99.90
52181;DHT22;38158;53.338;6.514;2022-11-24T00:14:36;6.80;99.90
52181;DHT22;38158;53.338;6.514;2022-11-24T00:17:02;6.80;99.90
52181;DHT22;38158;53.338;6.514;2022-11-24T00:19:28;6.80;99.90
52181;DHT22;38158;53.338;6.514;2022-11-24T00:21:53;6.80;99.90
52181;DHT22;38158;53.338;6.514;2022-11-24T00:24:19;6.80;99.90
52181;DHT22;38158;53.338;6.514;2022-11-24T00:26:45;6.70;99.90
52181;DHT22;38158;53.338;6.514;2022-11-24T00:29:11;6.80;99.90
52181;DHT22;38158;53.338;6.514;2022-11-24T00:31:38;6.80;99.90
52181;DHT22;38158;53.338;6.514;2022-11-24T00:34:06;6.80;99.90
52181;DHT22;38158;53.338;6.514;2022-11-24T00:36:34;6.80;99.90
52181;DHT22;38158;53.338;6.514;2022-11-24T00:39:03;6.80;99.90
52181;DHT22;38158;53.338;6.514;2022-11-24T00:41:29;6.80;99.90
52181;DHT22;38158;53.338;6.514;2022-11-24T00:43:56;6.70;99.90
52181;DHT22;38158;53.338;6.514;2022-11-24T00:46:22;6.80;99.90
52181;DHT22;38158;53.338;6.514;2022-11-24T00:48:48;6.70;99.90
52181;DHT22;38158;53.338;6.514;2022-11-24T00:51:15;6.70;99.90
52181;DHT22;38158;53.338;6.514;2022-11-24T00:53:41;6.70;99.90
52181;DHT22;38158;53.338;6.514;2022-11-24T00:56:08;6.70;99.90
52181;DHT22;38158;53.338;6.514;2022-11-24T00:58:34;6.70;99.90
52181;DHT22;38158;53.338;6.514;2022-11-24T01:03:33;6.60;99.90
52181;DHT22;38158;53.338;6.514;2022-11-24T01:06:04;6.70;99.90
52181;DHT22;38158;53.338;6.514;2022-11-24T01:08:30;6.70;99.90
52181;DHT22;38158;53.338;6.514;2022-11-24T01:13:35;6.70;99.90
52181;DHT22;38158;53.338;6.514;2022-11-24T01:16:02;6.70;99.90
52181;DHT22;38158;53.338;6.514;2022-11-24T01:18:28;6.70;99.90
52181;DHT22;38158;53.338;6.514;2022-11-24T01:20:53;6.80;99.90
52181;DHT22;38158;53.338;6.514;2022-11-24T01:23:19;6.80;99.90
52181;DHT22;38158;53.338;6.514;2022-11-24T01:25:45;6.80;99.90
52181;DHT22;38158;53.338;6.514;2022-11-24T01:28:10;6.80;99.90
52181;DHT22;38158;53.338;6.514;2022-11-24T01:30:36;6.80;99.90
52181;DHT22;38158;53.338;6.514;2022-11-24T01:33:02;6.80;99.90
52181;DHT22;38158;53.338;6.514;2022-11-24T01:35:27;6.70;99.90
52181;DHT22;38158;53.338;6.514;2022-11-24T01:37:53;6.70;99.90
52181;DHT22;38158;53.338;6.514;2022-11-24T01:40:19;6.70;99.90
52181;DHT22;38158;53.338;6.514;2022-11-24T01:42:50;6.70;99.90
52181;DHT22;38158;53.338;6.514;2022-11-24T01:45:30;6.70;99.90
52181;DHT22;38158;53.338;6.514;2022-11-24T01:47:57;6.70;99.90
52181;DHT22;38158;53.338;6.514;2022-11-24T01:50:23;6.70;99.90
52181;DHT22;38158;53.338;6.514;2022-11-24T01:52:52;6.70;99.90
52181;DHT22;38158;53.338;6.514;2022-11-24T01:55:29;6.80;99.90
52181;DHT22;38158;53.338;6.514;2022-11-24T01:58:07;6.70;99.90
52181;DHT22;38158;53.338;6.514;2022-11-24T02:00:36;6.70;99.90
52181;DHT22;38158;53.338;6.514;2022-11-24T02:03:03;6.80;99.90
52181;DHT22;38158;53.338;6.514;2022-11-24T02:05:50;6.90;99.90
52181;DHT22;38158;53.338;6.514;2022-11-24T02:08:57;6.90;99.90
52181;DHT22;38158;53.338;6.514;2022-11-24T02:11:27;7.00;99.90
52181;DHT22;38158;53.338;6.514;2022-11-24T02:13:53;7.00;99.90
52181;DHT22;38158;53.338;6.514;2022-11-24T02:16:19;7.80;99.90
52181;DHT22;38158;53.338;6.514;2022-11-24T02:18:45;7.00;99.90
52181;DHT22;38158;53.338;6.514;2022-11-24T02:21:13;7.00;99.90
52181;DHT22;38158;53.338;6.514;2022-11-24T02:28:56;7.10;99.90
52181;DHT22;38158;53.338;6.514;2022-11-24T02:31:22;7.10;99.90
52181;DHT22;38158;53.338;6.514;2022-11-24T02:33:48;7.10;99.90
52181;DHT22;38158;53.338;6.514;2022-11-24T02:36:14;7.10;99.90
52181;DHT22;38158;53.338;6.514;2022-11-24T02:38:40;7.10;99.90
52181;DHT22;38158;53.338;6.514;2022-11-24T02:41:09;7.10;99.90
52181;DHT22;38158;53.338;6.514;2022-11-24T02:43:40;7.00;99.90
52181;DHT22;38158;53.338;6.514;2022-11-24T02:46:07;7.00;99.90
52181;DHT22;38158;53.338;6.514;2022-11-24T02:48:35;7.00;99.90
52181;DHT22;38158;53.338;6.514;2022-11-24T02:51:02;7.00;99.90
52181;DHT22;38158;53.338;6.514;2022-11-24T02:53:27;6.90;99.90
52181;DHT22;38158;53.338;6.514;2022-11-24T02:55:53;6.90;99.90
52181;DHT22;38158;53.338;6.514;2022-11-24T02:58:19;6.80;99.90
52181;DHT22;38158;53.338;6.514;2022-11-24T03:00:45;6.80;99.90
52181;DHT22;38158;53.338;6.514;2022-11-24T03:03:10;6.70;99.90
52181;DHT22;38158;53.338;6.514;2022-11-24T03:05:36;6.70;99.90
52181;DHT22;38158;53.338;6.514;2022-11-24T03:08:02;6.60;99.90
52181;DHT22;38158;53.338;6.514;2022-11-24T03:10:28;6.60;99.90
52181;DHT22;38158;53.338;6.514;2022-11-24T03:12:54;6.60;99.90
52181;DHT22;38158;53.338;6.514;2022-11-24T03:15:20;6.60;99.90
52181;DHT22;38158;53.338;6.514;2022-11-24T03:17:46;6.60;99.90
52181;DHT22;38158;53.338;6.514;2022-11-24T03:20:12;6.60;99.90
52181;DHT22;38158;53.338;6.514;2022-11-24T03:22:38;6.60;99.90
52181;DHT22;38158;53.338;6.514;2022-11-24T03:25:05;6.60;99.90
52181;DHT22;38158;53.338;6.514;2022-11-24T03:27:30;6.60;99.90
52181;DHT22;38158;53.338;6.514;2022-11-24T03:29:56;6.60;99.90
52181;DHT22;38158;53.338;6.514;2022-11-24T03:32:22;6.70;99.90
52181;DHT22;38158;53.338;6.514;2022-11-24T03:34:48;6.70;99.90
52181;DHT22;38158;53.338;6.514;2022-11-24T03:37:13;6.70;99.90
52181;DHT22;38158;53.338;6.514;2022-11-24T03:39:39;6.70;99.90
52181;DHT22;38158;53.338;6.514;2022-11-24T03:42:05;6.70;99.90
52181;DHT22;38158;53.338;6.514;2022-11-24T03:44:30;6.70;99.90
52181;DHT22;38158;53.338;6.514;2022-11-24T03:46:56;6.70;99.90
52181;DHT22;38158;53.338;6.514;2022-11-24T03:49:22;6.70;99.90
52181;DHT22;38158;53.338;6.514;2022-11-24T03:51:48;6.70;99.90
52181;DHT22;38158;53.338;6.514;2022-11-24T03:54:14;6.70;99.90
52181;DHT22;38158;53.338;6.514;2022-11-24T03:56:40;6.70;99.90
52181;DHT22;38158;53.338;6.514;2022-11-24T03:59:06;6.70;99.90
52181;DHT22;38158;53.338;6.514;2022-11-24T04:01:31;6.70;99.90
52181;DHT22;38158;53.338;6.514;2022-11-24T04:03:57;6.70;99.90
52181;DHT22;38158;53.338;6.514;2022-11-24T04:06:23;6.60;99.90
52181;DHT22;38158;53.338;6.514;2022-11-24T04:08:48;6.70;99.90
52181;DHT22;38158;53.338;6.514;2022-11-24T04:11:14;6.60;99.90
52181;DHT22;38158;53.338;6.514;2022-11-24T04:14:00;6.60;99.90
52181;DHT22;38158;53.338;6.514;2022-11-24T04:16:26;6.50;99.90
52181;DHT22;38158;53.338;6.514;2022-11-24T04:18:52;6.50;99.90
52181;DHT22;38158;53.338;6.514;2022-11-24T04:21:19;6.50;99.90
52181;DHT22;38158;53.338;6.514;2022-11-24T04:23:44;6.40;99.90
52181;DHT22;38158;53.338;6.514;2022-11-24T04:26:10;6.40;99.90
52181;DHT22;38158;53.338;6.514;2022-11-24T04:28:36;6.40;99.90
52181;DHT22;38158;53.338;6.514;2022-11-24T04:31:04;6.40;99.90
52181;DHT22;38158;53.338;6.514;2022-11-24T04:33:30;6.40;99.90
52181;DHT22;38158;53.338;6.514;2022-11-24T04:35:55;6.40;99.90
52181;DHT22;38158;53.338;6.514;2022-11-24T04:38:21;6.80;99.90
52181;DHT22;38158;53.338;6.514;2022-11-24T04:40:47;6.40;99.90
52181;DHT22;38158;53.338;6.514;2022-11-24T04:43:13;6.50;99.90
52181;DHT22;38158;53.338;6.514;2022-11-24T04:45:40;6.50;99.90
52181;DHT22;38158;53.338;6.514;2022-11-24T04:48:06;6.50;99.90
52181;DHT22;38158;53.338;6.514;2022-11-24T04:50:31;6.50;99.90
52181;DHT22;38158;53.338;6.514;2022-11-24T04:52:57;6.40;99.90
52181;DHT22;38158;53.338;6.514;2022-11-24T04:55:23;6.40;99.90
52181;DHT22;38158;53.338;6.514;2022-11-24T04:57:48;6.50;99.90
52181;DHT22;38158;53.338;6.514;2022-11-24T05:00:14;6.50;99.90
52181;DHT22;38158;53.338;6.514;2022-11-24T05:02:40;6.40;99.90
52181;DHT22;38158;53.338;6.514;2022-11-24T05:05:06;6.60;99.90
52181;DHT22;38158;53.338;6.514;2022-11-24T05:07:32;6.40;99.90
52181;DHT22;38158;53.338;6.514;2022-11-24T05:09:58;6.60;99.90
52181;DHT22;38158;53.338;6.514;2022-11-24T05:12:42;6.30;99.90
52181;DHT22;38158;53.338;6.514;2022-11-24T05:15:08;6.30;99.90
52181;DHT22;38158;53.338;6.514;2022-11-24T05:17:35;6.30;99.90
52181;DHT22;38158;53.338;6.514;2022-11-24T05:20:03;6.30;99.90
52181;DHT22;38158;53.338;6.514;2022-11-24T05:22:29;6.30;99.90
52181;DHT22;38158;53.338;6.514;2022-11-24T05:24:54;6.20;99.90
52181;DHT22;38158;53.338;6.514;2022-11-24T05:27:20;6.20;99.90
52181;DHT22;38158;53.338;6.514;2022-11-24T05:29:46;6.10;99.90
52181;DHT22;38158;53.338;6.514;2022-11-24T05:32:12;6.50;99.90
52181;DHT22;38158;53.338;6.514;2022-11-24T05:34:37;6.10;99.90
52181;DHT22;38158;53.338;6.514;2022-11-24T05:37:03;6.10;99.90
52181;DHT22;38158;53.338;6.514;2022-11-24T05:39:33;6.00;99.90
52181;DHT22;38158;53.338;6.514;2022-11-24T05:42:00;6.60;99.90
52181;DHT22;38158;53.338;6.514;2022-11-24T05:44:45;6.00;99.90
52181;DHT22;38158;53.338;6.514;2022-11-24T05:47:11;6.00;99.90
52181;DHT22;38158;53.338;6.514;2022-11-24T05:49:36;6.00;99.90
52181;DHT22;38158;53.338;6.514;2022-11-24T05:52:02;5.90;99.90
52181;DHT22;38158;53.338;6.514;2022-11-24T05:54:28;5.80;99.90
52181;DHT22;38158;53.338;6.514;2022-11-24T05:56:54;5.80;99.90
52181;DHT22;38158;53.338;6.514;2022-11-24T05:59:20;6.40;99.90
52181;DHT22;38158;53.338;6.514;2022-11-24T06:01:46;5.90;99.90
52181;DHT22;38158;53.338;6.514;2022-11-24T06:04:11;6.00;99.90
52181;DHT22;38158;53.338;6.514;2022-11-24T06:06:37;5.90;99.90
52181;DHT22;38158;53.338;6.514;2022-11-24T06:09:03;6.70;99.90
52181;DHT22;38158;53.338;6.514;2022-11-24T06:11:29;5.90;99.90
52181;DHT22;38158;53.338;6.514;2022-11-24T06:13:55;5.90;99.90
52181;DHT22;38158;53.338;6.514;2022-11-24T06:16:21;5.90;99.90
52181;DHT22;38158;53.338;6.514;2022-11-24T06:18:47;6.00;99.90
52181;DHT22;38158;53.338;6.514;2022-11-24T06:21:12;6.10;99.90
52181;DHT22;38158;53.338;6.514;2022-11-24T06:23:39;6.00;99.90
52181;DHT22;38158;53.338;6.514;2022-11-24T06:26:05;6.00;99.90
52181;DHT22;38158;53.338;6.514;2022-11-24T06:28:30;6.10;99.90
52181;DHT22;38158;53.338;6.514;2022-11-24T06:31:03;6.10;99.90
52181;DHT22;38158;53.338;6.514;2022-11-24T06:33:33;6.20;99.90
52181;DHT22;38158;53.338;6.514;2022-11-24T06:36:01;6.20;99.90
52181;DHT22;38158;53.338;6.514;2022-11-24T06:38:27;6.40;99.90
52181;DHT22;38158;53.338;6.514;2022-11-24T06:41:19;6.50;99.90
52181;DHT22;38158;53.338;6.514;2022-11-24T06:43:45;6.20;99.90
52181;DHT22;38158;53.338;6.514;2022-11-24T06:46:11;6.20;99.90
52181;DHT22;38158;53.338;6.514;2022-11-24T06:48:37;6.60;99.90
52181;DHT22;38158;53.338;6.514;2022-11-24T06:51:05;6.90;99.90
52181;DHT22;38158;53.338;6.514;2022-11-24T06:53:33;6.20;99.90
52181;DHT22;38158;53.338;6.514;2022-11-24T06:56:04;6.20;99.90
52181;DHT22;38158;53.338;6.514;2022-11-24T06:58:30;6.20;99.90
52181;DHT22;38158;53.338;6.514;2022-11-24T07:00:55;6.10;99.90
52181;DHT22;38158;53.338;6.514;2022-11-24T07:03:21;6.10;99.90
52181;DHT22;38158;53.338;6.514;2022-11-24T07:05:47;6.10;99.90
52181;DHT22;38158;53.338;6.514;2022-11-24T07:08:13;6.10;99.90
52181;DHT22;38158;53.338;6.514;2022-11-24T07:10:38;6.00;99.90
52181;DHT22;38158;53.338;6.514;2022-11-24T07:13:07;6.00;99.90
52181;DHT22;38158;53.338;6.514;2022-11-24T07:15:33;6.00;99.90
52181;DHT22;38158;53.338;6.514;2022-11-24T07:17:58;6.00;99.90
52181;DHT22;38158;53.338;6.514;2022-11-24T07:20:24;6.00;99.90
52181;DHT22;38158;53.338;6.514;2022-11-24T07:22:57;5.90;99.90
52181;DHT22;38158;53.338;6.514;2022-11-24T07:25:24;6.00;99.90
52181;DHT22;38158;53.338;6.514;2022-11-24T07:27:55;5.90;99.90
52181;DHT22;38158;53.338;6.514;2022-11-24T07:30:21;5.90;99.90
52181;DHT22;38158;53.338;6.514;2022-11-24T07:32:46;5.90;99.90
52181;DHT22;38158;53.338;6.514;2022-11-24T07:35:12;6.10;99.90
52181;DHT22;38158;53.338;6.514;2022-11-24T07:37:38;6.10;99.90
52181;DHT22;38158;53.338;6.514;2022-11-24T07:40:04;5.90;99.90
52181;DHT22;38158;53.338;6.514;2022-11-24T07:42:30;5.90;99.90
52181;DHT22;38158;53.338;6.514;2022-11-24T07:44:55;5.90;99.90
52181;DHT22;38158;53.338;6.514;2022-11-24T07:47:21;5.90;99.90
52181;DHT22;38158;53.338;6.514;2022-11-24T07:49:47;5.90;99.90
52181;DHT22;38158;53.338;6.514;2022-11-24T07:52:12;5.90;99.90
52181;DHT22;38158;53.338;6.514;2022-11-24T07:54:38;6.00;99.90
52181;DHT22;38158;53.338;6.514;2022-11-24T07:57:04;6.00;99.90
52181;DHT22;38158;53.338;6.514;2022-11-24T07:59:29;6.00;99.90
52181;DHT22;38158;53.338;6.514;2022-11-24T08:01:55;6.00;99.90
52181;DHT22;38158;53.338;6.514;2022-11-24T08:04:20;6.20;99.90
52181;DHT22;38158;53.338;6.514;2022-11-24T08:06:46;6.00;99.90
52181;DHT22;38158;53.338;6.514;2022-11-24T08:09:12;6.00;99.90
52181;DHT22;38158;53.338;6.514;2022-11-24T08:11:37;6.00;99.90
52181;DHT22;38158;53.338;6.514;2022-11-24T08:14:03;6.10;99.90
52181;DHT22;38158;53.338;6.514;2022-11-24T08:16:29;6.10;99.90
52181;DHT22;38158;53.338;6.514;2022-11-24T08:18:55;6.10;99.90
52181;DHT22;38158;53.338;6.514;2022-11-24T08:21:21;6.10;99.90
52181;DHT22;38158;53.338;6.514;2022-11-24T08:23:47;6.10;99.90
52181;DHT22;38158;53.338;6.514;2022-11-24T08:26:14;6.10;99.90
52181;DHT22;38158;53.338;6.514;2022-11-24T08:28:43;6.20;99.90
52181;DHT22;38158;53.338;6.514;2022-11-24T08:31:11;6.20;99.90
52181;DHT22;38158;53.338;6.514;2022-11-24T08:33:38;6.20;99.90
52181;DHT22;38158;53.338;6.514;2022-11-24T08:36:06;6.30;99.90
52181;DHT22;38158;53.338;6.514;2022-11-24T08:38:32;6.30;99.90
52181;DHT22;38158;53.338;6.514;2022-11-24T08:41:02;6.30;99.90
52181;DHT22;38158;53.338;6.514;2022-11-24T08:43:28;6.50;99.90
52181;DHT22;38158;53.338;6.514;2022-11-24T08:45:57;6.40;99.90
52181;DHT22;38158;53.338;6.514;2022-11-24T08:48:23;6.40;99.90
52181;DHT22;38158;53.338;6.514;2022-11-24T08:50:48;6.50;99.90
52181;DHT22;38158;53.338;6.514;2022-11-24T08:53:14;6.50;99.90
52181;DHT22;38158;53.338;6.514;2022-11-24T08:55:40;6.50;99.90
52181;DHT22;38158;53.338;6.514;2022-11-24T08:58:05;6.50;99.90
52181;DHT22;38158;53.338;6.514;2022-11-24T09:00:31;6.50;99.90
52181;DHT22;38158;53.338;6.514;2022-11-24T09:02:57;6.50;99.90
52181;DHT22;38158;53.338;6.514;2022-11-24T09:05:24;6.50;99.90
52181;DHT22;38158;53.338;6.514;2022-11-24T09:07:50;6.50;99.90
52181;DHT22;38158;53.338;6.514;2022-11-24T09:10:16;6.50;99.90
52181;DHT22;38158;53.338;6.514;2022-11-24T09:12:45;6.60;99.90
52181;DHT22;38158;53.338;6.514;2022-11-24T09:15:12;6.60;99.90
52181;DHT22;38158;53.338;6.514;2022-11-24T09:17:39;6.70;99.90
52181;DHT22;38158;53.338;6.514;2022-11-24T09:20:05;6.70;99.90
52181;DHT22;38158;53.338;6.514;2022-11-24T09:22:31;6.80;99.90
52181;DHT22;38158;53.338;6.514;2022-11-24T09:24:57;6.90;99.90
52181;DHT22;38158;53.338;6.514;2022-11-24T09:27:22;7.00;99.90
52181;DHT22;38158;53.338;6.514;2022-11-24T09:29:48;7.20;99.90
52181;DHT22;38158;53.338;6.514;2022-11-24T09:32:14;7.30;99.90
52181;DHT22;38158;53.338;6.514;2022-11-24T09:34:40;7.40;99.90
52181;DHT22;38158;53.338;6.514;2022-11-24T09:37:05;7.50;99.90
52181;DHT22;38158;53.338;6.514;2022-11-24T09:39:31;7.60;99.90
52181;DHT22;38158;53.338;6.514;2022-11-24T09:42:18;7.70;99.90
52181;DHT22;38158;53.338;6.514;2022-11-24T09:45:14;7.80;99.90
52181;DHT22;38158;53.338;6.514;2022-11-24T09:47:56;7.80;99.90
52181;DHT22;38158;53.338;6.514;2022-11-24T09:50:43;7.90;99.90
52181;DHT22;38158;53.338;6.514;2022-11-24T09:53:38;7.90;99.90
52181;DHT22;38158;53.338;6.514;2022-11-24T09:56:19;7.90;99.90
52181;DHT22;38158;53.338;6.514;2022-11-24T09:58:56;8.00;99.90
52181;DHT22;38158;53.338;6.514;2022-11-24T10:01:32;8.00;99.90
52181;DHT22;38158;53.338;6.514;2022-11-24T10:03:58;8.10;99.90
52181;DHT22;38158;53.338;6.514;2022-11-24T10:06:28;8.20;99.90
52181;DHT22;38158;53.338;6.514;2022-11-24T10:14:36;8.20;99.90
52181;DHT22;38158;53.338;6.514;2022-11-24T10:23:17;8.50;99.90
52181;DHT22;38158;53.338;6.514;2022-11-24T10:25:59;8.60;99.90
52181;DHT22;38158;53.338;6.514;2022-11-24T10:28:55;8.70;99.90
52181;DHT22;38158;53.338;6.514;2022-11-24T10:31:22;8.80;99.90
52181;DHT22;38158;53.338;6.514;2022-11-24T10:33:48;8.80;99.90
52181;DHT22;38158;53.338;6.514;2022-11-24T10:36:42;8.80;99.90
52181;DHT22;38158;53.338;6.514;2022-11-24T10:39:18;8.80;99.90
52181;DHT22;38158;53.338;6.514;2022-11-24T10:44:22;8.90;99.90
52181;DHT22;38158;53.338;6.514;2022-11-24T10:46:48;8.90;99.90
52181;DHT22;38158;53.338;6.514;2022-11-24T10:49:26;8.90;99.90
52181;DHT22;38158;53.338;6.514;2022-11-24T10:54:30;9.00;99.90
52181;DHT22;38158;53.338;6.514;2022-11-24T10:56:56;9.00;99.90
52181;DHT22;38158;53.338;6.514;2022-11-24T10:59:33;9.10;99.90
52181;DHT22;38158;53.338;6.514;2022-11-24T11:02:00;9.10;99.90
52181;DHT22;38158;53.338;6.514;2022-11-24T11:04:34;9.20;99.90
52181;DHT22;38158;53.338;6.514;2022-11-24T11:07:21;9.20;99.90
52181;DHT22;38158;53.338;6.514;2022-11-24T11:09:48;9.30;99.90
52181;DHT22;38158;53.338;6.514;2022-11-24T11:12:22;9.30;99.90
52181;DHT22;38158;53.338;6.514;2022-11-24T11:14:51;9.40;99.90
52181;DHT22;38158;53.338;6.514;2022-11-24T11:17:37;9.40;99.90
52181;DHT22;38158;53.338;6.514;2022-11-24T11:20:16;9.40;99.90
52181;DHT22;38158;53.338;6.514;2022-11-24T11:22:44;9.50;99.90
52181;DHT22;38158;53.338;6.514;2022-11-24T11:25:31;9.60;99.90
52181;DHT22;38158;53.338;6.514;2022-11-24T11:31:01;9.70;99.90
52181;DHT22;38158;53.338;6.514;2022-11-24T11:33:29;9.70;99.90
52181;DHT22;38158;53.338;6.514;2022-11-24T11:35:57;9.70;99.90
52181;DHT22;38158;53.338;6.514;2022-11-24T11:38:30;9.80;99.90
52181;DHT22;38158;53.338;6.514;2022-11-24T11:40:58;9.80;99.90
52181;DHT22;38158;53.338;6.514;2022-11-24T11:43:33;9.90;99.90
52181;DHT22;38158;53.338;6.514;2022-11-24T11:46:10;9.90;99.90
52181;DHT22;38158;53.338;6.514;2022-11-24T11:48:39;10.00;99.90
52181;DHT22;38158;53.338;6.514;2022-11-24T11:54:20;10.00;99.90
52181;DHT22;38158;53.338;6.514;2022-11-24T11:57:10;10.10;99.90
52181;DHT22;38158;53.338;6.514;2022-11-24T12:10:52;10.30;99.90
52181;DHT22;38158;53.338;6.514;2022-11-24T12:13:43;10.30;99.90
52181;DHT22;38158;53.338;6.514;2022-11-24T12:18:59;10.40;99.90
52181;DHT22;38158;53.338;6.514;2022-11-24T12:27:32;10.40;99.90
52181;DHT22;38158;53.338;6.514;2022-11-24T12:30:10;10.50;99.90
52181;DHT22;38158;53.338;6.514;2022-11-24T12:35:43;10.50;99.90
52181;DHT22;38158;53.338;6.514;2022-11-24T12:43:29;10.60;99.90
52181;DHT22;38158;53.338;6.514;2022-11-24T12:51:34;10.50;99.90
52181;DHT22;38158;53.338;6.514;2022-11-24T12:54:07;10.60;99.90
52181;DHT22;38158;53.338;6.514;2022-11-24T12:56:52;10.70;99.90
52181;DHT22;38158;53.338;6.514;2022-11-24T13:07:47;11.00;99.90
52181;DHT22;38158;53.338;6.514;2022-11-24T13:13:08;11.10;99.90
52181;DHT22;38158;53.338;6.514;2022-11-24T13:18:59;11.10;99.90
52181;DHT22;38158;53.338;6.514;2022-11-24T13:24:04;11.00;99.90
52181;DHT22;38158;53.338;6.514;2022-11-24T13:31:53;10.70;99.90
52181;DHT22;38158;53.338;6.514;2022-11-24T13:42:29;10.50;99.90
52181;DHT22;38158;53.338;6.514;2022-11-24T13:45:03;10.50;99.90
52181;DHT22;38158;53.338;6.514;2022-11-24T13:47:37;10.40;99.90
52181;DHT22;38158;53.338;6.514;2022-11-24T13:52:48;10.30;99.90
52181;DHT22;38158;53.338;6.514;2022-11-24T13:58:30;10.30;99.90
52181;DHT22;38158;53.338;6.514;2022-11-24T14:00:59;10.20;99.90
52181;DHT22;38158;53.338;6.514;2022-11-24T14:06:32;10.10;99.90
52181;DHT22;38158;53.338;6.514;2022-11-24T14:09:00;10.10;99.90
52181;DHT22;38158;53.338;6.514;2022-11-24T14:11:28;10.00;99.90
52181;DHT22;38158;53.338;6.514;2022-11-24T14:13:54;10.00;99.90
52181;DHT22;38158;53.338;6.514;2022-11-24T14:16:21;9.90;99.90
52181;DHT22;38158;53.338;6.514;2022-11-24T14:18:49;9.90;99.90
52181;DHT22;38158;53.338;6.514;2022-11-24T14:23:54;9.80;99.90
52181;DHT22;38158;53.338;6.514;2022-11-24T14:26:35;9.70;99.90
52181;DHT22;38158;53.338;6.514;2022-11-24T14:29:13;9.70;99.90
52181;DHT22;38158;53.338;6.514;2022-11-24T14:31:40;9.60;99.90
52181;DHT22;38158;53.338;6.514;2022-11-24T14:36:37;9.50;99.90
52181;DHT22;38158;53.338;6.514;2022-11-24T14:39:04;9.50;99.90
52181;DHT22;38158;53.338;6.514;2022-11-24T14:41:31;9.40;99.90
52181;DHT22;38158;53.338;6.514;2022-11-24T14:46:29;9.30;99.90
52181;DHT22;38158;53.338;6.514;2022-11-24T14:48:55;9.30;99.90
52181;DHT22;38158;53.338;6.514;2022-11-24T14:51:27;9.20;99.90
52181;DHT22;38158;53.338;6.514;2022-11-24T14:53:58;9.10;99.90
52181;DHT22;38158;53.338;6.514;2022-11-24T14:56:34;9.10;99.90
52181;DHT22;38158;53.338;6.514;2022-11-24T14:59:00;9.10;99.90
52181;DHT22;38158;53.338;6.514;2022-11-24T15:07:00;8.90;99.90
52181;DHT22;38158;53.338;6.514;2022-11-24T15:09:31;8.90;99.90
52181;DHT22;38158;53.338;6.514;2022-11-24T15:12:04;9.30;99.90
52181;DHT22;38158;53.338;6.514;2022-11-24T15:14:35;8.80;99.90
52181;DHT22;38158;53.338;6.514;2022-11-24T15:17:03;8.80;99.90
52181;DHT22;38158;53.338;6.514;2022-11-24T15:19:32;8.70;99.90
52181;DHT22;38158;53.338;6.514;2022-11-24T15:21:58;8.70;99.90
52181;DHT22;38158;53.338;6.514;2022-11-24T15:24:23;8.70;99.90
52181;DHT22;38158;53.338;6.514;2022-11-24T15:26:49;8.60;99.90
52181;DHT22;38158;53.338;6.514;2022-11-24T15:29:22;8.60;99.90
52181;DHT22;38158;53.338;6.514;2022-11-24T15:31:48;8.60;99.90
52181;DHT22;38158;53.338;6.514;2022-11-24T15:34:13;8.50;99.90
52181;DHT22;38158;53.338;6.514;2022-11-24T15:36:39;8.50;99.90
52181;DHT22;38158;53.338;6.514;2022-11-24T15:39:05;8.50;99.90
52181;DHT22;38158;53.338;6.514;2022-11-24T15:41:31;8.40;99.90
52181;DHT22;38158;53.338;6.514;2022-11-24T15:43:58;8.30;99.90
52181;DHT22;38158;53.338;6.514;2022-11-24T15:46:25;8.30;99.90
52181;DHT22;38158;53.338;6.514;2022-11-24T15:48:51;8.30;99.90
52181;DHT22;38158;53.338;6.514;2022-11-24T15:51:20;8.20;99.90
52181;DHT22;38158;53.338;6.514;2022-11-24T15:53:53;8.20;99.90
52181;DHT22;38158;53.338;6.514;2022-11-24T15:56:34;8.10;99.90
52181;DHT22;38158;53.338;6.514;2022-11-24T15:59:01;8.10;99.90
52181;DHT22;38158;53.338;6.514;2022-11-24T16:01:31;8.00;99.90
52181;DHT22;38158;53.338;6.514;2022-11-24T16:03:57;8.00;99.90
52181;DHT22;38158;53.338;6.514;2022-11-24T16:06:23;8.00;99.90
52181;DHT22;38158;53.338;6.514;2022-11-24T16:08:48;8.00;99.90
52181;DHT22;38158;53.338;6.514;2022-11-24T16:11:14;7.90;99.90
52181;DHT22;38158;53.338;6.514;2022-11-24T16:13:40;8.00;99.90
52181;DHT22;38158;53.338;6.514;2022-11-24T16:16:06;7.90;99.90
52181;DHT22;38158;53.338;6.514;2022-11-24T16:18:32;7.90;99.90
52181;DHT22;38158;53.338;6.514;2022-11-24T16:20:59;7.80;99.90
52181;DHT22;38158;53.338;6.514;2022-11-24T16:23:25;7.80;99.90
52181;DHT22;38158;53.338;6.514;2022-11-24T16:25:51;7.80;99.90
52181;DHT22;38158;53.338;6.514;2022-11-24T16:28:16;7.70;99.90
52181;DHT22;38158;53.338;6.514;2022-11-24T16:30:47;7.70;99.90
52181;DHT22;38158;53.338;6.514;2022-11-24T16:33:14;7.70;99.90
52181;DHT22;38158;53.338;6.514;2022-11-24T16:35:40;7.70;99.90
52181;DHT22;38158;53.338;6.514;2022-11-24T16:38:05;7.60;99.90
52181;DHT22;38158;53.338;6.514;2022-11-24T16:40:31;7.60;99.90
52181;DHT22;38158;53.338;6.514;2022-11-24T16:42:57;7.60;99.90
52181;DHT22;38158;53.338;6.514;2022-11-24T16:45:23;7.60;99.90
52181;DHT22;38158;53.338;6.514;2022-11-24T16:47:48;7.60;99.90
52181;DHT22;38158;53.338;6.514;2022-11-24T16:50:14;7.80;99.90
52181;DHT22;38158;53.338;6.514;2022-11-24T16:52:40;7.60;99.90
52181;DHT22;38158;53.338;6.514;2022-11-24T16:55:06;7.50;99.90
52181;DHT22;38158;53.338;6.514;2022-11-24T16:57:34;7.50;99.90
52181;DHT22;38158;53.338;6.514;2022-11-24T17:00:01;7.50;99.90
52181;DHT22;38158;53.338;6.514;2022-11-24T17:02:27;7.50;99.90
52181;DHT22;38158;53.338;6.514;2022-11-24T17:04:52;7.50;99.90
52181;DHT22;38158;53.338;6.514;2022-11-24T17:07:19;7.50;99.90
52181;DHT22;38158;53.338;6.514;2022-11-24T17:09:44;7.50;99.90
52181;DHT22;38158;53.338;6.514;2022-11-24T17:12:10;7.50;99.90
52181;DHT22;38158;53.338;6.514;2022-11-24T17:14:36;7.50;99.90
52181;DHT22;38158;53.338;6.514;2022-11-24T17:17:01;7.50;99.90
52181;DHT22;38158;53.338;6.514;2022-11-24T17:19:27;7.50;99.90
52181;DHT22;38158;53.338;6.514;2022-11-24T17:21:56;7.50;99.90
52181;DHT22;38158;53.338;6.514;2022-11-24T17:24:22;7.40;99.90
52181;DHT22;38158;53.338;6.514;2022-11-24T17:26:50;7.40;99.90
52181;DHT22;38158;53.338;6.514;2022-11-24T17:29:17;7.40;99.90
52181;DHT22;38158;53.338;6.514;2022-11-24T17:31:43;7.60;99.90
52181;DHT22;38158;53.338;6.514;2022-11-24T17:34:10;7.40;99.90
52181;DHT22;38158;53.338;6.514;2022-11-24T17:36:36;7.30;99.90
52181;DHT22;38158;53.338;6.514;2022-11-24T17:39:04;7.30;99.90
52181;DHT22;38158;53.338;6.514;2022-11-24T17:41:30;7.30;99.90
52181;DHT22;38158;53.338;6.514;2022-11-24T17:43:56;7.30;99.90
52181;DHT22;38158;53.338;6.514;2022-11-24T17:46:23;7.30;99.90
52181;DHT22;38158;53.338;6.514;2022-11-24T17:48:49;7.30;99.90
52181;DHT22;38158;53.338;6.514;2022-11-24T17:51:17;7.30;99.90